Time,TemperatureF,DewpointF,PressureIn,WindDirection,WindDirectionDegrees,WindSpeedMPH,WindSpeedGustMPH,Humidity,HourlyPrecipIn,Conditions,Clouds,dailyrainin,SolarRadiationWatts/m^2,SoftwareType,DateUTC
2013-02-12 00:01:00,71.0,61.0,30.11,East,80,3.0,7.0,70,0.00,,,-99.99,0.000000,,2013-02-12 10:01:00,
2013-02-12 00:11:00,71.0,61.0,30.11,East,80,3.0,7.0,70,0.00,,,-99.99,0.000000,,2013-02-12 10:11:00,
2013-02-12 00:43:00,67.0,60.0,30.10,NW,308,4.0,6.0,78,0.00,,,-99.99,0.000000,,2013-02-12 10:43:00,
2013-02-12 00:52:00,67.0,60.0,30.10,NW,308,4.0,6.0,78,0.00,,,-99.99,0.000000,,2013-02-12 10:52:00,
2013-02-12 01:01:00,67.0,60.0,30.10,NW,308,4.0,6.0,78,0.00,,,-99.99,0.000000,,2013-02-12 11:01:00,
2013-02-12 01:11:00,67.0,60.0,30.10,NW,308,4.0,6.0,78,0.00,,,-99.99,0.000000,,2013-02-12 11:11:00,
2013-02-12 01:42:00,68.0,59.0,30.10,NE,56,5.0,7.0,72,0.00,,,-99.99,0.000000,,2013-02-12 11:42:00,
2013-02-12 01:52:00,68.0,59.0,30.10,NE,56,5.0,7.0,72,0.00,,,-99.99,0.000000,,2013-02-12 11:52:00,
2013-02-12 02:01:00,68.0,59.0,30.10,NE,56,5.0,7.0,72,0.00,,,-99.99,0.000000,,2013-02-12 12:01:00,
2013-02-12 02:11:00,68.0,59.0,30.10,NE,56,5.0,7.0,72,0.00,,,-99.99,0.000000,,2013-02-12 12:11:00,
2013-02-12 02:32:00,67.0,58.0,30.09,NE,43,5.0,7.0,74,0.00,,,-99.99,0.000000,,2013-02-12 12:32:00,
2013-02-12 02:42:00,67.0,58.0,30.09,NE,43,5.0,7.0,74,0.00,,,-99.99,0.000000,,2013-02-12 12:42:00,
2013-02-12 02:52:00,67.0,58.0,30.09,NE,43,5.0,7.0,74,0.00,,,-99.99,0.000000,,2013-02-12 12:52:00,
2013-02-12 03:01:00,67.0,58.0,30.09,NE,43,5.0,7.0,74,0.00,,,-99.99,0.000000,,2013-02-12 13:01:00,
2013-02-12 03:11:00,67.0,58.0,30.09,NE,43,5.0,7.0,74,0.00,,,-99.99,0.000000,,2013-02-12 13:11:00,
2013-02-12 03:42:00,68.0,59.0,30.08,SW,214,2.0,7.0,74,0.00,,,-99.99,0.000000,,2013-02-12 13:42:00,
2013-02-12 03:52:00,68.0,59.0,30.08,SW,214,2.0,7.0,74,0.00,,,-99.99,0.000000,,2013-02-12 13:52:00,
2013-02-12 04:01:00,68.0,59.0,30.08,SW,214,2.0,7.0,74,0.00,,,-99.99,0.000000,,2013-02-12 14:01:00,
2013-02-12 04:11:00,68.0,59.0,30.08,SW,214,2.0,7.0,74,0.00,,,-99.99,0.000000,,2013-02-12 14:11:00,
2013-02-12 04:42:00,67.0,59.0,30.08,North,11,5.0,7.0,75,0.00,,,-99.99,0.000000,,2013-02-12 14:42:00,
2013-02-12 04:52:00,67.0,59.0,30.08,North,11,5.0,7.0,75,0.00,,,-99.99,0.000000,,2013-02-12 14:52:00,
2013-02-12 05:01:00,67.0,59.0,30.08,North,11,5.0,7.0,75,0.00,,,-99.99,0.000000,,2013-02-12 15:01:00,
2013-02-12 05:11:00,67.0,59.0,30.08,North,11,5.0,7.0,75,0.00,,,-99.99,0.000000,,2013-02-12 15:11:00,
2013-02-12 05:42:00,66.0,57.0,30.07,ESE,106,6.0,7.0,73,0.00,,,-99.99,0.000000,,2013-02-12 15:42:00,
2013-02-12 05:52:00,66.0,57.0,30.07,ESE,106,6.0,7.0,73,0.00,,,-99.99,0.000000,,2013-02-12 15:52:00,
2013-02-12 06:01:00,66.0,57.0,30.07,ESE,106,6.0,7.0,73,0.00,,,-99.99,0.000000,,2013-02-12 16:01:00,
2013-02-12 06:11:00,66.0,57.0,30.07,ESE,106,6.0,7.0,73,0.00,,,-99.99,0.000000,,2013-02-12 16:11:00,
2013-02-12 06:32:00,65.0,55.0,30.08,ESE,120,2.0,9.0,71,0.00,,,-99.99,0.000000,,2013-02-12 16:32:00,
2013-02-12 06:42:00,65.0,55.0,30.08,ESE,120,2.0,9.0,71,0.00,,,-99.99,0.000000,,2013-02-12 16:42:00,
2013-02-12 06:52:00,65.0,55.0,30.08,ESE,120,2.0,9.0,71,0.00,,,-99.99,0.000000,,2013-02-12 16:52:00,
2013-02-12 07:01:00,65.0,55.0,30.08,ESE,120,2.0,9.0,71,0.00,,,-99.99,0.000000,,2013-02-12 17:01:00,
2013-02-12 07:11:00,65.0,55.0,30.08,ESE,120,2.0,9.0,71,0.00,,,-99.99,0.000000,,2013-02-12 17:11:00,
2013-02-12 07:42:00,65.0,56.0,30.10,East,92,5.0,6.0,73,0.00,,,-99.99,3.000000,,2013-02-12 17:42:00,
2013-02-12 07:52:00,65.0,56.0,30.10,East,92,5.0,6.0,73,0.00,,,-99.99,3.000000,,2013-02-12 17:52:00,
2013-02-12 08:01:00,65.0,56.0,30.10,East,92,5.0,6.0,73,0.00,,,-99.99,3.000000,,2013-02-12 18:01:00,
2013-02-12 08:11:00,65.0,56.0,30.10,East,92,5.0,6.0,73,0.00,,,-99.99,3.000000,,2013-02-12 18:11:00,
2013-02-12 08:42:00,71.0,59.0,30.11,NE,53,6.0,7.0,67,0.00,,,-99.99,83.000000,,2013-02-12 18:42:00,
2013-02-12 08:52:00,71.0,59.0,30.11,NE,53,6.0,7.0,67,0.00,,,-99.99,83.000000,,2013-02-12 18:52:00,
2013-02-12 09:02:00,71.0,59.0,30.11,NE,53,6.0,7.0,67,0.00,,,-99.99,83.000000,,2013-02-12 19:02:00,
2013-02-12 09:11:00,71.0,59.0,30.11,NE,53,6.0,7.0,67,0.00,,,-99.99,83.000000,,2013-02-12 19:11:00,
2013-02-12 09:42:00,80.0,64.0,30.12,SSE,166,3.0,6.0,59,0.00,,,-99.99,356.000000,,2013-02-12 19:42:00,
2013-02-12 09:52:00,80.0,64.0,30.12,SSE,166,3.0,6.0,59,0.00,,,-99.99,356.000000,,2013-02-12 19:52:00,
2013-02-12 10:01:00,80.0,64.0,30.12,SSE,166,3.0,6.0,59,0.00,,,-99.99,356.000000,,2013-02-12 20:01:00,
2013-02-12 10:11:00,80.0,64.0,30.12,SSE,166,3.0,6.0,59,0.00,,,-99.99,356.000000,,2013-02-12 20:11:00,
2013-02-12 10:42:00,78.0,65.0,30.13,West,272,8.0,13.0,64,0.00,,,-99.99,533.000000,,2013-02-12 20:42:00,
2013-02-12 10:52:00,78.0,65.0,30.13,West,272,8.0,13.0,64,0.00,,,-99.99,533.000000,,2013-02-12 20:52:00,
2013-02-12 11:01:00,78.0,65.0,30.13,West,272,8.0,13.0,64,0.00,,,-99.99,533.000000,,2013-02-12 21:01:00,
2013-02-12 11:11:00,78.0,65.0,30.13,West,272,8.0,13.0,64,0.00,,,-99.99,533.000000,,2013-02-12 21:11:00,
2013-02-12 11:42:00,79.0,63.0,30.11,WSW,249,8.0,10.0,59,0.00,,,-99.99,481.000000,,2013-02-12 21:42:00,
2013-02-12 11:52:00,79.0,63.0,30.11,WSW,249,8.0,10.0,59,0.00,,,-99.99,481.000000,,2013-02-12 21:52:00,
2013-02-12 12:01:00,79.0,63.0,30.11,WSW,249,8.0,10.0,59,0.00,,,-99.99,481.000000,,2013-02-12 22:01:00,
2013-02-12 12:12:00,79.0,63.0,30.11,WSW,249,8.0,10.0,59,0.00,,,-99.99,481.000000,,2013-02-12 22:12:00,
2013-02-12 12:42:00,80.0,65.0,30.09,SSW,209,10.0,14.0,61,0.00,,,0.00,734.000000,,2013-02-12 22:42:00,
2013-02-12 12:52:00,80.0,65.0,30.09,SSW,209,10.0,14.0,61,0.00,,,0.00,734.000000,,2013-02-12 22:52:00,
2013-02-12 13:01:00,80.0,65.0,30.09,SSW,209,10.0,14.0,61,0.00,,,0.00,734.000000,,2013-02-12 23:01:00,
2013-02-12 13:11:00,80.0,65.0,30.09,SSW,209,10.0,14.0,61,0.00,,,0.00,734.000000,,2013-02-12 23:11:00,
2013-02-12 13:42:00,80.0,64.0,30.06,SW,229,8.0,14.0,58,0.00,,,0.00,831.000000,,2013-02-12 23:42:00,
2013-02-12 13:52:00,80.0,64.0,30.06,SW,229,8.0,14.0,58,0.00,,,0.00,831.000000,,2013-02-12 23:52:00,
2013-02-12 14:02:00,80.0,64.0,30.06,SW,229,8.0,14.0,58,0.00,,,0.00,831.000000,,2013-02-13 00:02:00,
2013-02-12 14:11:00,80.0,64.0,30.06,SW,229,8.0,14.0,58,0.00,,,0.00,831.000000,,2013-02-13 00:11:00,
2013-02-12 14:42:00,79.0,63.0,30.04,SW,233,9.0,11.0,59,0.00,,,0.00,674.000000,,2013-02-13 00:42:00,
2013-02-12 14:52:00,79.0,63.0,30.04,SW,233,9.0,11.0,59,0.00,,,0.00,674.000000,,2013-02-13 00:52:00,
2013-02-12 15:01:00,79.0,63.0,30.04,SW,233,9.0,11.0,59,0.00,,,0.00,674.000000,,2013-02-13 01:01:00,
2013-02-12 15:11:00,79.0,63.0,30.04,SW,233,9.0,11.0,59,0.00,,,0.00,674.000000,,2013-02-13 01:11:00,
2013-02-12 16:42:00,78.0,62.0,30.04,WSW,239,8.0,13.0,58,-99.99,,,0.00,315.000000,,2013-02-13 02:42:00,
2013-02-12 16:52:00,78.0,62.0,30.04,WSW,239,8.0,13.0,58,-99.99,,,0.00,315.000000,,2013-02-13 02:52:00,
2013-02-12 17:01:00,78.0,62.0,30.04,WSW,239,8.0,13.0,58,-99.99,,,0.00,315.000000,,2013-02-13 03:01:00,
2013-02-12 17:11:00,78.0,62.0,30.04,WSW,239,8.0,13.0,58,-99.99,,,0.00,315.000000,,2013-02-13 03:11:00,
2013-02-12 17:42:00,77.0,62.0,30.04,WSW,240,7.0,11.0,60,0.00,,,0.00,270.000000,,2013-02-13 03:42:00,
2013-02-12 17:52:00,77.0,62.0,30.04,WSW,240,7.0,11.0,60,0.00,,,0.00,270.000000,,2013-02-13 03:52:00,
2013-02-12 18:01:00,77.0,62.0,30.04,WSW,240,7.0,11.0,60,0.00,,,0.00,270.000000,,2013-02-13 04:01:00,
2013-02-12 18:11:00,77.0,62.0,30.04,WSW,240,7.0,11.0,60,0.00,,,0.00,270.000000,,2013-02-13 04:11:00,
2013-02-12 18:42:00,76.0,63.0,30.05,WSW,247,5.0,10.0,65,0.00,,,0.00,67.000000,,2013-02-13 04:42:00,
2013-02-12 18:52:00,76.0,63.0,30.05,WSW,247,5.0,10.0,65,0.00,,,0.00,67.000000,,2013-02-13 04:52:00,
2013-02-12 19:01:00,76.0,63.0,30.05,WSW,247,5.0,10.0,65,0.00,,,0.00,67.000000,,2013-02-13 05:01:00,
2013-02-12 19:11:00,76.0,63.0,30.05,WSW,247,5.0,10.0,65,0.00,,,0.00,67.000000,,2013-02-13 05:11:00,
2013-02-12 19:32:00,75.0,62.0,30.06,West,261,4.0,7.0,65,0.00,,,0.00,1.000000,,2013-02-13 05:32:00,
2013-02-12 19:42:00,75.0,62.0,30.06,West,261,4.0,7.0,65,0.00,,,0.00,1.000000,,2013-02-13 05:42:00,
2013-02-12 19:52:00,75.0,62.0,30.06,West,261,4.0,7.0,65,0.00,,,0.00,1.000000,,2013-02-13 05:52:00,
2013-02-12 20:02:00,75.0,62.0,30.06,West,261,4.0,7.0,65,0.00,,,0.00,1.000000,,2013-02-13 06:02:00,
2013-02-12 20:11:00,75.0,62.0,30.06,West,261,4.0,7.0,65,0.00,,,0.00,1.000000,,2013-02-13 06:11:00,
2013-02-12 20:32:00,73.0,62.0,30.07,WSW,249,4.0,7.0,69,0.00,,,0.00,0.000000,,2013-02-13 06:32:00,
2013-02-12 20:42:00,73.0,62.0,30.07,WSW,249,4.0,7.0,69,0.00,,,0.00,0.000000,,2013-02-13 06:42:00,
2013-02-12 20:52:00,73.0,62.0,30.07,WSW,249,4.0,7.0,69,0.00,,,0.00,0.000000,,2013-02-13 06:52:00,
2013-02-12 21:02:00,73.0,62.0,30.07,WSW,249,4.0,7.0,69,0.00,,,0.00,0.000000,,2013-02-13 07:02:00,
2013-02-12 21:11:00,73.0,62.0,30.07,WSW,249,4.0,7.0,69,0.00,,,0.00,0.000000,,2013-02-13 07:11:00,
2013-02-12 21:42:00,71.0,62.0,30.08,NE,50,4.0,6.0,73,0.00,,,0.00,0.000000,,2013-02-13 07:42:00,
2013-02-12 21:52:00,71.0,62.0,30.08,NE,50,4.0,6.0,73,0.00,,,0.00,0.000000,,2013-02-13 07:52:00,
2013-02-12 22:01:00,71.0,62.0,30.08,NE,50,4.0,6.0,73,0.00,,,0.00,0.000000,,2013-02-13 08:01:00,
2013-02-12 22:11:00,71.0,62.0,30.08,NE,50,4.0,6.0,73,0.00,,,0.00,0.000000,,2013-02-13 08:11:00,
2013-02-12 22:43:00,71.0,62.0,30.08,NE,45,6.0,8.0,73,0.00,,,0.00,0.000000,,2013-02-13 08:43:00,
2013-02-12 22:52:00,71.0,62.0,30.08,NE,45,6.0,8.0,73,0.00,,,0.00,0.000000,,2013-02-13 08:52:00,
2013-02-12 23:01:00,71.0,62.0,30.08,NE,45,6.0,8.0,73,0.00,,,0.00,0.000000,,2013-02-13 09:01:00,
2013-02-12 23:11:00,71.0,62.0,30.08,NE,45,6.0,8.0,73,0.00,,,0.00,0.000000,,2013-02-13 09:11:00,
2013-02-12 23:42:00,69.0,60.0,30.08,NE,54,3.0,7.0,73,0.00,,,0.00,0.000000,,2013-02-13 09:42:00,
2013-02-12 23:52:00,69.0,60.0,30.08,NE,54,3.0,7.0,73,0.00,,,0.00,0.000000,,2013-02-13 09:52:00,